Time;durP1;ratioP1;P1;durP2;ratioP2;P2;SDS_P1;SDS_P2;PMS_P1;PMS_P2;Temp;Humidity;BMP_temperature;BMP_pressure;BME280_temperature;BME280_humidity;BME280_pressure;Samples;Min_cycle;Max_cycle;Signal;HPM_P1;HPM_P2
2022/09/04 00:00:48;;;;;;;0.08;0.08;;;;;;;;;;5033698;28;20419;-69
2022/09/04 00:03:25;;;;;;;0.20;0.20;;;;;;;;;;5026133;28;20058;-69
2022/09/04 00:05:54;;;;;;;0.40;0.20;;;;;;;;;;5028256;28;20497;-68
2022/09/04 00:08:40;;;;;;;0.30;0.30;;;;;;;;;;5028741;28;20125;-68
2022/09/04 00:11:12;;;;;;;0.10;0.10;;;;;;;;;;5017132;28;20140;-69
2022/09/04 00:13:43;;;;;;;0.47;0.35;;;;;;;;;;5029532;28;20107;-68
2022/09/04 00:16:15;;;;;;;0.20;0.20;;;;;;;;;;5026207;28;20053;-68
2022/09/04 00:18:47;;;;;;;0.10;0.10;;;;;;;;;;5032441;28;20097;-68
2022/09/04 00:21:19;;;;;;;0.15;0.15;;;;;;;;;;5023464;28;20096;-69
2022/09/04 00:23:51;;;;;;;0.10;0.10;;;;;;;;;;5026383;28;20148;-68
2022/09/04 00:26:25;;;;;;;1.27;0.85;;;;;;;;;;5022839;28;20132;-69
2022/09/04 00:28:57;;;;;;;0.00;0.00;;;;;;;;;;5031442;28;20481;-68
2022/09/04 00:31:28;;;;;;;0.20;0.20;;;;;;;;;;5022664;28;20144;-69
2022/09/04 00:34:06;;;;;;;0.10;0.10;;;;;;;;;;5030786;28;20057;-69
2022/09/04 00:36:36;;;;;;;0.10;0.10;;;;;;;;;;5026941;28;20115;-68
2022/09/04 00:39:09;;;;;;;0.00;0.00;;;;;;;;;;5028763;28;20524;-68
2022/09/04 00:41:44;;;;;;;0.00;0.00;;;;;;;;;;5026079;28;20077;-69
2022/09/04 00:44:46;;;;;;;0.08;0.08;;;;;;;;;;5026596;28;20145;-70
2022/09/04 00:47:36;;;;;;;0.20;0.10;;;;;;;;;;4947567;29;20047;-68
2022/09/04 00:50:14;;;;;;;0.03;0.03;;;;;;;;;;4939479;29;20122;-69
2022/09/04 00:52:53;;;;;;;0.00;0.00;;;;;;;;;;4947979;28;20138;-68
2022/09/04 00:55:35;;;;;;;0.05;0.05;;;;;;;;;;4949020;29;20594;-68
2022/09/04 00:58:21;;;;;;;0.43;0.10;;;;;;;;;;4950992;28;20128;-68
2022/09/04 01:00:50;;;;;;;0.30;0.30;;;;;;;;;;5011323;28;20053;-68
2022/09/04 01:03:30;;;;;;;0.20;0.10;;;;;;;;;;5024923;28;20065;-69
2022/09/04 01:06:11;;;;;;;0.00;0.00;;;;;;;;;;5026332;28;20100;-68
2022/09/04 01:08:45;;;;;;;0.75;0.20;;;;;;;;;;5024109;28;20057;-68
2022/09/04 01:11:18;;;;;;;0.10;0.10;;;;;;;;;;5024124;28;20144;-68
2022/09/04 01:13:51;;;;;;;0.10;0.10;;;;;;;;;;5027124;28;20057;-68
2022/09/04 01:16:23;;;;;;;0.15;0.15;;;;;;;;;;5027346;28;20083;-68
2022/09/04 01:18:55;;;;;;;0.17;0.17;;;;;;;;;;5019058;28;20119;-69
2022/09/04 01:24:31;;;;;;;0.30;0.30;;;;;;;;;;5094326;27;20566;-68
2022/09/04 01:27:03;;;;;;;1.30;0.30;;;;;;;;;;5070450;27;20422;-68
2022/09/04 01:29:38;;;;;;;0.20;0.20;;;;;;;;;;5064629;28;20483;-68
2022/09/04 01:32:10;;;;;;;0.08;0.08;;;;;;;;;;5063179;28;20148;-68
2022/09/04 01:34:41;;;;;;;0.10;0.10;;;;;;;;;;5061491;28;20067;-68
2022/09/04 01:37:16;;;;;;;0.00;0.00;;;;;;;;;;5045284;28;20045;-68
2022/09/04 01:39:45;;;;;;;;;;;;;;;;;;5045017;28;20527;-68
2022/09/04 01:42:18;;;;;;;0.10;0.10;;;;;;;;;;5040100;28;19920;-68
2022/09/04 01:44:46;;;;;;;0.10;0.10;;;;;;;;;;5041388;28;20641;-68
2022/09/04 01:47:16;;;;;;;0.17;0.17;;;;;;;;;;5042597;28;20124;-68
2022/09/04 01:49:46;;;;;;;0.10;0.10;;;;;;;;;;5036620;28;20140;-68
2022/09/04 01:52:35;;;;;;;0.28;0.28;;;;;;;;;;5039769;28;20076;-68
2022/09/04 01:55:09;;;;;;;0.10;0.10;;;;;;;;;;5042010;28;20144;-68
2022/09/04 01:57:46;;;;;;;0.20;0.15;;;;;;;;;;5040607;28;20432;-68
2022/09/04 02:00:17;;;;;;;0.10;0.10;;;;;;;;;;5039583;28;20049;-68
2022/09/04 02:02:52;;;;;;;0.47;0.47;;;;;;;;;;5035682;28;20118;-68
2022/09/04 02:05:24;;;;;;;0.17;0.10;;;;;;;;;;5034849;28;20142;-68
2022/09/04 02:07:55;;;;;;;0.00;0.00;;;;;;;;;;5039695;28;20496;-68
2022/09/04 02:10:30;;;;;;;0.10;0.10;;;;;;;;;;5038858;28;20057;-68
2022/09/04 02:13:06;;;;;;;0.10;0.10;;;;;;;;;;5039852;28;20132;-68
2022/09/04 02:15:40;;;;;;;0.10;0.10;;;;;;;;;;5042724;28;20143;-68
2022/09/04 02:18:12;;;;;;;0.10;0.10;;;;;;;;;;5043959;28;20562;-68
2022/09/04 02:20:43;;;;;;;0.00;0.00;;;;;;;;;;5044902;28;20140;-68
2022/09/04 02:23:16;;;;;;;0.10;0.10;;;;;;;;;;5040498;28;20125;-68
2022/09/04 02:25:49;;;;;;;0.40;0.20;;;;;;;;;;5037429;28;20136;-69
2022/09/04 02:28:24;;;;;;;0.10;0.10;;;;;;;;;;5044386;28;20079;-70
2022/09/04 02:30:57;;;;;;;0.85;0.20;;;;;;;;;;5039045;28;20037;-68
2022/09/04 02:33:28;;;;;;;0.10;0.10;;;;;;;;;;5039384;28;20140;-68
2022/09/04 02:36:06;;;;;;;0.00;0.00;;;;;;;;;;5024941;28;20543;-68
2022/09/04 02:38:42;;;;;;;0.13;0.13;;;;;;;;;;5034782;28;20577;-70
2022/09/04 02:41:15;;;;;;;0.10;0.10;;;;;;;;;;5032658;28;20088;-69
2022/09/04 02:43:56;;;;;;;0.35;0.35;;;;;;;;;;5026640;28;20122;-68
2022/09/04 02:46:27;;;;;;;0.00;0.00;;;;;;;;;;5024860;28;20152;-70
2022/09/04 02:49:02;;;;;;;0.17;0.10;;;;;;;;;;5027905;28;20046;-68
2022/09/04 02:51:30;;;;;;;;;;;;;;;;;;5032407;28;20049;-68
2022/09/04 02:54:03;;;;;;;0.03;0.03;;;;;;;;;;5031448;28;20079;-68
2022/09/04 02:56:38;;;;;;;0.00;0.00;;;;;;;;;;5029473;28;20053;-68
2022/09/04 02:59:24;;;;;;;0.00;0.00;;;;;;;;;;5028046;28;20425;-68
2022/09/04 03:01:56;;;;;;;0.00;0.00;;;;;;;;;;5027452;28;20567;-68
2022/09/04 03:04:30;;;;;;;0.20;0.20;;;;;;;;;;5032870;28;20060;-68
2022/09/04 03:07:03;;;;;;;0.08;0.08;;;;;;;;;;5031050;28;20049;-68
2022/09/04 03:09:33;;;;;;;0.03;0.03;;;;;;;;;;5032008;28;20045;-68
2022/09/04 03:12:05;;;;;;;2.10;0.75;;;;;;;;;;5029825;28;20067;-68
2022/09/04 03:14:36;;;;;;;0.20;0.20;;;;;;;;;;5032028;28;20081;-68
2022/09/04 03:17:09;;;;;;;0.20;0.20;;;;;;;;;;5025005;28;20531;-69
2022/09/04 03:19:43;;;;;;;0.05;0.03;;;;;;;;;;5026412;28;20664;-68
2022/09/04 03:22:15;;;;;;;0.10;0.10;;;;;;;;;;5024553;28;20393;-68
2022/09/04 03:25:00;;;;;;;0.17;0.17;;;;;;;;;;5030024;28;20041;-68
2022/09/04 03:27:31;;;;;;;0.17;0.10;;;;;;;;;;5024755;28;20477;-68
2022/09/04 03:30:04;;;;;;;0.10;0.10;;;;;;;;;;5026526;28;20485;-68
2022/09/04 03:32:35;;;;;;;0.10;0.10;;;;;;;;;;5028663;28;20080;-68
2022/09/04 03:35:08;;;;;;;0.20;0.20;;;;;;;;;;5029447;28;20521;-68
2022/09/04 03:37:51;;;;;;;0.25;0.10;;;;;;;;;;5024658;28;20588;-68
2022/09/04 03:40:25;;;;;;;0.10;0.10;;;;;;;;;;5025986;28;20133;-68
2022/09/04 03:43:09;;;;;;;0.10;0.10;;;;;;;;;;5029033;28;20129;-68
2022/09/04 03:45:45;;;;;;;0.20;0.10;;;;;;;;;;5025207;28;20063;-69
2022/09/04 03:48:21;;;;;;;0.40;0.40;;;;;;;;;;5028584;28;20442;-68
2022/09/04 03:50:56;;;;;;;0.20;0.10;;;;;;;;;;5024632;28;20057;-68
2022/09/04 03:53:28;;;;;;;0.00;0.00;;;;;;;;;;5030747;28;20473;-68
2022/09/04 03:56:06;;;;;;;0.52;0.08;;;;;;;;;;5027438;28;20080;-68
2022/09/04 03:58:36;;;;;;;0.32;0.32;;;;;;;;;;5030683;28;20496;-69
2022/09/04 04:01:16;;;;;;;0.00;0.00;;;;;;;;;;5026934;28;20142;-68
2022/09/04 04:03:57;;;;;;;0.90;0.55;;;;;;;;;;5022238;28;20046;-68
2022/09/04 04:06:30;;;;;;;0.00;0.00;;;;;;;;;;5027425;28;20045;-68
2022/09/04 04:09:14;;;;;;;0.10;0.10;;;;;;;;;;5027618;28;20053;-69
2022/09/04 04:11:52;;;;;;;0.98;0.20;;;;;;;;;;5022968;28;20473;-68
2022/09/04 04:14:37;;;;;;;0.10;0.10;;;;;;;;;;5026646;28;20103;-68
2022/09/04 04:17:15;;;;;;;0.10;0.10;;;;;;;;;;5023689;28;20115;-69
2022/09/04 04:19:54;;;;;;;0.10;0.10;;;;;;;;;;5026291;28;20049;-68
2022/09/04 04:22:31;;;;;;;0.03;0.03;;;;;;;;;;5026070;28;20049;-68
2022/09/04 04:25:06;;;;;;;0.15;0.10;;;;;;;;;;5021798;28;20132;-68
2022/09/04 04:27:47;;;;;;;0.68;0.17;;;;;;;;;;5021774;28;20053;-68
2022/09/04 04:30:17;;;;;;;0.20;0.15;;;;;;;;;;5030678;28;20405;-68
2022/09/04 04:33:01;;;;;;;0.05;0.05;;;;;;;;;;5023963;28;20132;-68
2022/09/04 04:35:34;;;;;;;0.10;0.10;;;;;;;;;;5032990;28;20067;-68
2022/09/04 04:38:10;;;;;;;0.15;0.10;;;;;;;;;;5026686;28;20132;-68
2022/09/04 04:40:58;;;;;;;0.10;0.10;;;;;;;;;;5025612;28;20556;-68
2022/09/04 04:43:30;;;;;;;0.20;0.20;;;;;;;;;;5030940;28;20107;-68
2022/09/04 04:46:00;;;;;;;0.20;0.13;;;;;;;;;;5026323;28;20053;-68
2022/09/04 04:48:40;;;;;;;0.10;0.10;;;;;;;;;;5025022;28;20107;-68
2022/09/04 04:51:13;;;;;;;0.20;0.20;;;;;;;;;;5026253;28;20133;-68
2022/09/04 04:53:46;;;;;;;0.10;0.10;;;;;;;;;;5028064;28;20091;-68
2022/09/04 04:56:18;;;;;;;0.00;0.00;;;;;;;;;;5025176;28;20045;-68
2022/09/04 04:58:53;;;;;;;0.08;0.08;;;;;;;;;;5031568;28;20565;-68
2022/09/04 05:01:28;;;;;;;0.00;0.00;;;;;;;;;;5027895;28;20053;-68
2022/09/04 05:03:57;;;;;;;;;;;;;;;;;;5025459;28;20091;-68
2022/09/04 05:06:29;;;;;;;0.10;0.10;;;;;;;;;;5025472;28;19931;-68
2022/09/04 05:09:02;;;;;;;0.13;0.13;;;;;;;;;;5022870;28;20584;-68
2022/09/04 05:11:35;;;;;;;0.08;0.08;;;;;;;;;;5024073;28;20080;-68
2022/09/04 05:14:09;;;;;;;0.22;0.10;;;;;;;;;;5026540;28;20131;-68
2022/09/04 05:16:46;;;;;;;0.00;0.00;;;;;;;;;;5024061;28;20116;-68
2022/09/04 05:19:23;;;;;;;0.10;0.10;;;;;;;;;;5022584;28;20365;-69
2022/09/04 05:22:00;;;;;;;0.00;0.00;;;;;;;;;;5025635;28;20045;-68
2022/09/04 05:24:33;;;;;;;0.20;0.20;;;;;;;;;;5016408;28;20085;-68
2022/09/04 05:27:06;;;;;;;0.10;0.10;;;;;;;;;;5026154;28;20077;-68
2022/09/04 05:29:38;;;;;;;0.00;0.00;;;;;;;;;;5026295;28;20136;-68
2022/09/04 05:32:13;;;;;;;0.10;0.10;;;;;;;;;;5026503;28;20148;-68
2022/09/04 05:34:41;;;;;;;;;;;;;;;;;;5021292;28;20562;-68
2022/09/04 05:37:15;;;;;;;0.10;0.10;;;;;;;;;;5022237;28;20008;-68
2022/09/04 05:39:50;;;;;;;0.05;0.05;;;;;;;;;;5027489;28;20092;-68
2022/09/04 05:42:38;;;;;;;0.10;0.10;;;;;;;;;;5027687;28;20059;-68
2022/09/04 05:45:11;;;;;;;0.17;0.17;;;;;;;;;;5025940;28;20045;-68
2022/09/04 05:47:44;;;;;;;0.22;0.22;;;;;;;;;;5024789;28;20124;-68
2022/09/04 05:50:20;;;;;;;0.30;0.10;;;;;;;;;;5027135;28;20043;-68
2022/09/04 05:52:59;;;;;;;0.10;0.10;;;;;;;;;;5024645;28;20132;-68
2022/09/04 05:55:48;;;;;;;0.05;0.05;;;;;;;;;;5019601;28;20540;-68
2022/09/04 05:58:25;;;;;;;0.10;0.10;;;;;;;;;;5022114;28;20497;-68
2022/09/04 06:00:59;;;;;;;0.00;0.00;;;;;;;;;;5024997;28;20547;-68
2022/09/04 06:03:33;;;;;;;0.10;0.10;;;;;;;;;;5026101;28;20081;-68
2022/09/04 06:06:11;;;;;;;0.30;0.20;;;;;;;;;;5019953;28;20414;-70
2022/09/04 06:08:57;;;;;;;0.00;0.00;;;;;;;;;;5027021;28;20103;-70
2022/09/04 06:11:37;;;;;;;0.20;0.20;;;;;;;;;;5028850;28;20077;-71
2022/09/04 06:14:15;;;;;;;0.20;0.20;;;;;;;;;;5030487;28;20054;-70
2022/09/04 06:16:54;;;;;;;0.08;0.08;;;;;;;;;;5039134;28;20075;-70
2022/09/04 06:19:33;;;;;;;0.43;0.20;;;;;;;;;;5047072;28;20073;-71
2022/09/04 06:22:22;;;;;;;0.05;0.05;;;;;;;;;;5047024;28;20089;-71
2022/09/04 06:24:57;;;;;;;0.10;0.10;;;;;;;;;;5038999;28;20475;-71
2022/09/04 06:27:41;;;;;;;0.10;0.10;;;;;;;;;;5029411;28;20707;-71
2022/09/04 06:30:11;;;;;;;0.22;0.13;;;;;;;;;;5026200;28;20303;-72
2022/09/04 06:32:50;;;;;;;0.20;0.20;;;;;;;;;;5025435;28;20084;-71
2022/09/04 06:35:25;;;;;;;0.10;0.10;;;;;;;;;;5027384;28;20574;-71
2022/09/04 06:38:00;;;;;;;0.30;0.30;;;;;;;;;;5044588;28;20080;-71
2022/09/04 06:40:38;;;;;;;0.00;0.00;;;;;;;;;;5045846;28;20102;-70
2022/09/04 06:43:12;;;;;;;0.35;0.10;;;;;;;;;;5047813;28;20045;-71
2022/09/04 06:45:45;;;;;;;0.65;0.40;;;;;;;;;;5046329;28;20071;-70
2022/09/04 06:48:18;;;;;;;0.57;0.57;;;;;;;;;;5025741;28;20137;-71
2022/09/04 06:50:54;;;;;;;0.32;0.20;;;;;;;;;;5027866;28;20084;-70
2022/09/04 06:53:31;;;;;;;0.20;0.20;;;;;;;;;;5024501;28;20137;-71
2022/09/04 06:56:10;;;;;;;0.35;0.30;;;;;;;;;;5018786;28;20498;-70
2022/09/04 06:58:46;;;;;;;0.20;0.20;;;;;;;;;;5026399;28;20483;-71
2022/09/04 07:01:16;;;;;;;0.57;0.22;;;;;;;;;;5023349;28;20058;-70
2022/09/04 07:03:50;;;;;;;0.20;0.20;;;;;;;;;;5025263;28;20076;-71
2022/09/04 07:06:22;;;;;;;0.10;0.10;;;;;;;;;;5023659;28;20049;-71
2022/09/04 07:08:58;;;;;;;0.22;0.22;;;;;;;;;;5026448;28;20045;-70
2022/09/04 07:11:39;;;;;;;0.10;0.10;;;;;;;;;;5018701;28;20154;-72
2022/09/04 07:14:16;;;;;;;1.05;0.17;;;;;;;;;;5027259;28;20131;-70
2022/09/04 07:16:49;;;;;;;0.38;0.30;;;;;;;;;;5037716;28;20437;-71
2022/09/04 07:19:25;;;;;;;0.28;0.25;;;;;;;;;;5034821;28;20089;-71
2022/09/04 07:21:59;;;;;;;0.80;0.32;;;;;;;;;;5024779;28;20219;-71
2022/09/04 07:24:38;;;;;;;0.40;0.40;;;;;;;;;;5026738;28;20083;-71
2022/09/04 07:27:11;;;;;;;0.28;0.28;;;;;;;;;;5024821;28;20152;-71
2022/09/04 07:29:45;;;;;;;0.40;0.30;;;;;;;;;;5021511;28;20124;-71
2022/09/04 07:32:17;;;;;;;0.52;0.10;;;;;;;;;;5025671;28;20156;-70
2022/09/04 07:34:49;;;;;;;0.10;0.10;;;;;;;;;;5025074;28;20691;-71
2022/09/04 07:37:23;;;;;;;2.50;0.60;;;;;;;;;;5017207;28;20140;-71
2022/09/04 07:39:58;;;;;;;0.20;0.20;;;;;;;;;;5026427;28;20469;-71
2022/09/04 07:42:31;;;;;;;1.00;0.40;;;;;;;;;;5026601;28;20111;-71
2022/09/04 07:45:03;;;;;;;0.70;0.40;;;;;;;;;;5025073;28;20449;-71
2022/09/04 07:47:34;;;;;;;0.25;0.22;;;;;;;;;;5024355;28;20132;-70
2022/09/04 07:50:08;;;;;;;0.15;0.10;;;;;;;;;;5024290;28;20053;-68
2022/09/04 07:52:49;;;;;;;7.90;0.35;;;;;;;;;;5026714;28;20449;-68
2022/09/04 07:55:24;;;;;;;0.40;0.40;;;;;;;;;;5027438;28;20045;-71
2022/09/04 07:58:03;;;;;;;0.38;0.28;;;;;;;;;;5049430;28;20079;-68
2022/09/04 08:00:34;;;;;;;1.75;0.50;;;;;;;;;;5044898;28;20507;-68
2022/09/04 08:03:23;;;;;;;0.75;0.50;;;;;;;;;;5043293;28;20091;-69
2022/09/04 08:05:56;;;;;;;0.90;0.50;;;;;;;;;;5042647;28;20180;-69
2022/09/04 08:08:55;;;;;;;0.82;0.30;;;;;;;;;;5024896;28;20107;-68
2022/09/04 08:11:38;;;;;;;0.38;0.20;;;;;;;;;;4984248;28;20183;-70
2022/09/04 08:14:17;;;;;;;0.57;0.40;;;;;;;;;;5012668;28;20136;-70
2022/09/04 08:16:55;;;;;;;0.63;0.60;;;;;;;;;;5021891;28;20132;-70
2022/09/04 08:19:39;;;;;;;0.45;0.45;;;;;;;;;;5023590;28;20187;-70
2022/09/04 08:22:09;;;;;;;0.30;0.30;;;;;;;;;;5023656;28;20073;-71
2022/09/04 08:24:52;;;;;;;0.47;0.43;;;;;;;;;;5015873;28;20041;-70
2022/09/04 08:27:30;;;;;;;1.02;0.47;;;;;;;;;;5023903;28;20050;-69
2022/09/04 08:30:05;;;;;;;3.25;0.95;;;;;;;;;;5022664;28;20379;-69
2022/09/04 08:32:47;;;;;;;0.70;0.70;;;;;;;;;;5021687;28;20099;-70
2022/09/04 08:35:22;;;;;;;0.10;0.10;;;;;;;;;;5024110;28;20511;-70
2022/09/04 08:37:58;;;;;;;0.63;0.50;;;;;;;;;;5039016;28;20583;-70
2022/09/04 08:40:45;;;;;;;1.60;0.82;;;;;;;;;;5043333;28;20060;-70
2022/09/04 08:43:28;;;;;;;0.20;0.20;;;;;;;;;;5037589;28;20053;-70
2022/09/04 08:46:17;;;;;;;0.43;0.43;;;;;;;;;;5036641;28;20159;-69
2022/09/04 08:49:06;;;;;;;0.57;0.50;;;;;;;;;;5019246;28;20050;-68
2022/09/04 08:51:47;;;;;;;1.25;0.68;;;;;;;;;;5017040;28;20047;-69
2022/09/04 08:54:34;;;;;;;0.40;0.32;;;;;;;;;;5017474;28;20077;-69
2022/09/04 08:57:13;;;;;;;0.38;0.38;;;;;;;;;;5020690;28;20072;-69
2022/09/04 08:59:59;;;;;;;0.77;0.60;;;;;;;;;;5022875;28;20037;-69
2022/09/04 09:02:48;;;;;;;0.50;0.38;;;;;;;;;;5023756;28;20072;-69
2022/09/04 09:05:37;;;;;;;0.55;0.10;;;;;;;;;;5022872;28;20041;-68
2022/09/04 09:08:14;;;;;;;0.98;0.70;;;;;;;;;;5056926;28;20119;-68
2022/09/04 09:10:55;;;;;;;0.47;0.40;;;;;;;;;;5042565;28;20135;-68
2022/09/04 09:13:39;;;;;;;1.27;0.63;;;;;;;;;;5042420;28;20049;-69
2022/09/04 09:16:19;;;;;;;0.40;0.30;;;;;;;;;;5031866;28;20119;-68
2022/09/04 09:18:57;;;;;;;0.30;0.30;;;;;;;;;;5018494;28;20132;-68
2022/09/04 09:21:33;;;;;;;0.55;0.45;;;;;;;;;;5020614;28;20081;-69
2022/09/04 09:24:15;;;;;;;0.28;0.28;;;;;;;;;;5023399;28;20066;-69
2022/09/04 09:26:54;;;;;;;0.28;0.28;;;;;;;;;;5033138;28;20072;-70
2022/09/04 09:29:40;;;;;;;1.90;0.30;;;;;;;;;;5043701;28;20120;-69
2022/09/04 09:32:27;;;;;;;0.50;0.25;;;;;;;;;;5037450;28;20045;-68
2022/09/04 09:35:23;;;;;;;0.65;0.50;;;;;;;;;;5044394;28;20110;-69
2022/09/04 09:38:07;;;;;;;0.43;0.25;;;;;;;;;;5017013;28;20481;-71
2022/09/04 09:40:52;;;;;;;0.73;0.40;;;;;;;;;;5019734;28;20612;-70
2022/09/04 09:43:34;;;;;;;0.63;0.63;;;;;;;;;;5016837;28;20095;-69
2022/09/04 09:46:27;;;;;;;0.85;0.85;;;;;;;;;;5027498;28;20134;-70
2022/09/04 09:49:14;;;;;;;0.55;0.52;;;;;;;;;;5039409;28;20526;-70
2022/09/04 09:52:03;;;;;;;0.50;0.30;;;;;;;;;;5047074;28;20507;-70
2022/09/04 09:54:52;;;;;;;0.60;0.55;;;;;;;;;;5047096;28;20114;-71
2022/09/04 09:57:35;;;;;;;1.10;0.63;;;;;;;;;;5048666;28;20507;-72
2022/09/04 10:00:08;;;;;;;0.68;0.35;;;;;;;;;;5048973;28;20512;-72
2022/09/04 10:02:49;;;;;;;0.40;0.40;;;;;;;;;;5038516;28;20136;-73
2022/09/04 10:05:32;;;;;;;0.43;0.40;;;;;;;;;;5047966;28;20067;-75
2022/09/04 10:08:11;;;;;;;0.45;0.30;;;;;;;;;;5039292;28;20164;-72
2022/09/04 10:10:47;;;;;;;0.20;0.20;;;;;;;;;;5048216;28;20360;-72
2022/09/04 10:13:30;;;;;;;0.95;0.40;;;;;;;;;;5047489;28;20049;-73
2022/09/04 10:16:20;;;;;;;0.40;0.40;;;;;;;;;;5040606;28;20221;-73
2022/09/04 10:19:07;;;;;;;1.05;0.60;;;;;;;;;;5023667;28;20057;-73
2022/09/04 10:21:50;;;;;;;0.90;0.40;;;;;;;;;;5025860;28;20073;-72
2022/09/04 10:24:32;;;;;;;0.88;0.40;;;;;;;;;;5026119;28;20435;-72
2022/09/04 10:27:18;;;;;;;0.63;0.50;;;;;;;;;;5026326;28;20447;-72
2022/09/04 10:30:05;;;;;;;0.28;0.28;;;;;;;;;;5028531;28;20049;-72
2022/09/04 10:32:41;;;;;;;0.70;0.43;;;;;;;;;;5024736;28;20161;-72
2022/09/04 10:35:17;;;;;;;0.40;0.30;;;;;;;;;;5017759;28;20100;-72
2022/09/04 10:38:00;;;;;;;0.40;0.30;;;;;;;;;;5022659;28;20089;-73
2022/09/04 10:40:37;;;;;;;0.40;0.30;;;;;;;;;;5023503;28;20292;-73
2022/09/04 10:43:18;;;;;;;0.80;0.47;;;;;;;;;;5027705;28;20123;-73
2022/09/04 10:45:47;;;;;;;0.50;0.30;;;;;;;;;;5020301;28;20057;-72
2022/09/04 10:48:28;;;;;;;0.73;0.45;;;;;;;;;;5027996;28;20497;-72
2022/09/04 10:51:07;;;;;;;4.13;0.40;;;;;;;;;;5025991;28;20045;-73
2022/09/04 10:53:51;;;;;;;0.20;0.20;;;;;;;;;;5025565;28;20072;-72
2022/09/04 10:56:27;;;;;;;0.43;0.32;;;;;;;;;;5026937;28;20622;-72
2022/09/04 10:59:12;;;;;;;0.22;0.22;;;;;;;;;;5028688;28;20483;-72
2022/09/04 11:01:54;;;;;;;0.40;0.20;;;;;;;;;;5024873;28;20053;-72
2022/09/04 11:04:38;;;;;;;1.33;0.57;;;;;;;;;;5028118;28;20196;-71
2022/09/04 11:07:15;;;;;;;0.20;0.20;;;;;;;;;;5018952;28;20092;-73
2022/09/04 11:09:50;;;;;;;0.43;0.35;;;;;;;;;;5026094;28;20350;-72
2022/09/04 11:12:18;;;;;;;;;;;;;;;;;;5027062;28;20358;-71
2022/09/04 11:15:11;;;;;;;0.80;0.47;;;;;;;;;;5030321;28;20024;-72
2022/09/04 11:17:52;;;;;;;0.50;0.50;;;;;;;;;;5016296;28;20088;-71
2022/09/04 11:20:51;;;;;;;0.70;0.65;;;;;;;;;;5024141;28;20144;-72
2022/09/04 11:23:38;;;;;;;0.40;0.30;;;;;;;;;;4936059;28;20447;-71
2022/09/04 11:26:38;;;;;;;0.35;0.30;;;;;;;;;;5021591;28;20570;-72
2022/09/04 11:29:26;;;;;;;0.15;0.15;;;;;;;;;;5044297;28;20419;-71
2022/09/04 11:32:12;;;;;;;0.40;0.30;;;;;;;;;;5040321;28;20395;-71
2022/09/04 11:35:05;;;;;;;0.68;0.22;;;;;;;;;;5036319;28;20129;-72
2022/09/04 11:37:55;;;;;;;0.28;0.20;;;;;;;;;;5027758;28;20164;-72
2022/09/04 11:40:36;;;;;;;0.28;0.28;;;;;;;;;;5022725;28;20052;-71
2022/09/04 11:43:12;;;;;;;0.75;0.30;;;;;;;;;;5032512;28;20132;-71
2022/09/04 11:45:51;;;;;;;0.52;0.35;;;;;;;;;;5024383;28;20109;-71
2022/09/04 11:48:43;;;;;;;1.30;0.30;;;;;;;;;;5030155;28;20059;-72
2022/09/04 11:51:18;;;;;;;0.20;0.20;;;;;;;;;;5029277;28;20557;-71
2022/09/04 11:54:08;;;;;;;0.52;0.28;;;;;;;;;;5026076;28;20110;-72
2022/09/04 11:56:57;;;;;;;0.60;0.40;;;;;;;;;;5029322;28;20071;-71
2022/09/04 11:59:56;;;;;;;0.20;0.20;;;;;;;;;;5029488;28;20556;-71
2022/09/04 12:02:52;;;;;;;1.00;0.17;;;;;;;;;;5024632;28;20152;-71
2022/09/04 12:05:35;;;;;;;;;;;;;;;;;;5029083;28;20132;-71
2022/09/04 12:08:11;;;;;;;0.22;0.22;;;;;;;;;;5056910;28;21165;-71
2022/09/04 12:10:54;;;;;;;0.80;0.20;;;;;;;;;;5051187;28;20078;-71
2022/09/04 12:13:38;;;;;;;2.10;0.30;;;;;;;;;;5050940;28;20072;-71
2022/09/04 12:16:19;;;;;;;0.28;0.25;;;;;;;;;;5037138;28;20057;-69
2022/09/04 12:18:59;;;;;;;1.83;0.40;;;;;;;;;;5024271;28;20454;-70
2022/09/04 12:21:47;;;;;;;0.80;0.60;;;;;;;;;;5023357;28;20141;-70
2022/09/04 12:24:43;;;;;;;2.08;0.50;;;;;;;;;;5024596;28;20132;-73
2022/09/04 12:27:26;;;;;;;0.50;0.30;;;;;;;;;;5007436;28;20111;-73
2022/09/04 12:30:06;;;;;;;0.30;0.25;;;;;;;;;;5048494;28;20109;-73
2022/09/04 12:32:53;;;;;;;0.20;0.20;;;;;;;;;;5050072;28;20059;-74
2022/09/04 12:35:30;;;;;;;0.82;0.45;;;;;;;;;;5046024;28;20132;-73
2022/09/04 12:38:15;;;;;;;0.50;0.35;;;;;;;;;;5018750;28;20061;-73
2022/09/04 12:40:47;;;;;;;0.17;0.17;;;;;;;;;;5028939;28;20128;-73
2022/09/04 12:43:22;;;;;;;1.85;1.10;;;;;;;;;;5033342;28;20145;-74
2022/09/04 12:45:55;;;;;;;0.55;0.22;;;;;;;;;;5030268;28;20477;-74
2022/09/04 12:48:31;;;;;;;0.20;0.10;;;;;;;;;;5029865;28;20474;-73
2022/09/04 12:51:01;;;;;;;0.40;0.22;;;;;;;;;;5040015;28;20709;-74
2022/09/04 12:53:51;;;;;;;0.40;0.20;;;;;;;;;;5024934;28;20133;-73
2022/09/04 12:56:25;;;;;;;0.25;0.20;;;;;;;;;;5029366;28;20128;-73
2022/09/04 12:59:06;;;;;;;0.57;0.20;;;;;;;;;;5029938;28;20450;-73
2022/09/04 13:01:49;;;;;;;0.43;0.22;;;;;;;;;;5030041;28;20052;-74
2022/09/04 13:04:21;;;;;;;0.35;0.30;;;;;;;;;;5025815;28;20516;-73
2022/09/04 13:07:02;;;;;;;0.73;0.30;;;;;;;;;;5028208;28;20053;-72
2022/09/04 13:09:47;;;;;;;0.45;0.40;;;;;;;;;;5028262;28;20146;-73
2022/09/04 13:12:24;;;;;;;0.35;0.35;;;;;;;;;;5028477;28;20054;-73
2022/09/04 13:15:03;;;;;;;0.30;0.30;;;;;;;;;;5027846;28;20052;-73
2022/09/04 13:17:34;;;;;;;1.73;0.60;;;;;;;;;;5025019;28;20105;-75
2022/09/04 13:20:07;;;;;;;0.30;0.28;;;;;;;;;;5028558;28;20069;-73
2022/09/04 13:22:39;;;;;;;0.75;0.38;;;;;;;;;;5020102;28;20045;-71
2022/09/04 13:25:12;;;;;;;0.90;0.30;;;;;;;;;;5029774;28;20077;-73
2022/09/04 13:27:47;;;;;;;0.30;0.20;;;;;;;;;;5025064;28;20485;-73
2022/09/04 13:30:17;;;;;;;;;;;;;;;;;;5028137;28;20049;-74
2022/09/04 13:32:56;;;;;;;0.28;0.20;;;;;;;;;;5022374;28;19947;-73
2022/09/04 13:35:38;;;;;;;0.20;0.20;;;;;;;;;;5023653;28;20085;-73
2022/09/04 13:38:15;;;;;;;0.22;0.22;;;;;;;;;;5045420;28;20075;-73
2022/09/04 13:40:53;;;;;;;0.52;0.30;;;;;;;;;;5048299;28;20048;-73
2022/09/04 13:43:31;;;;;;;0.20;0.20;;;;;;;;;;5047490;28;20053;-73
2022/09/04 13:46:00;;;;;;;0.50;0.30;;;;;;;;;;5042571;28;20084;-71
2022/09/04 13:48:36;;;;;;;0.20;0.20;;;;;;;;;;5027266;28;20111;-73
2022/09/04 13:51:10;;;;;;;0.30;0.20;;;;;;;;;;5029050;28;20041;-72
2022/09/04 13:53:51;;;;;;;0.90;0.40;;;;;;;;;;5020844;28;20049;-72
2022/09/04 13:56:25;;;;;;;0.30;0.25;;;;;;;;;;5025561;28;20072;-71
2022/09/04 13:58:57;;;;;;;0.45;0.28;;;;;;;;;;5024118;28;20096;-73
2022/09/04 14:01:28;;;;;;;0.50;0.40;;;;;;;;;;5021173;28;20160;-72
2022/09/04 14:04:00;;;;;;;0.30;0.30;;;;;;;;;;5022178;28;20500;-71
2022/09/04 14:06:31;;;;;;;0.50;0.40;;;;;;;;;;5026864;28;20494;-73
2022/09/04 14:09:02;;;;;;;0.25;0.25;;;;;;;;;;5029019;28;20049;-73
2022/09/04 14:11:47;;;;;;;0.50;0.40;;;;;;;;;;5027810;28;20512;-72
2022/09/04 14:14:29;;;;;;;0.35;0.32;;;;;;;;;;5017744;28;20140;-72
2022/09/04 14:16:58;;;;;;;0.55;0.50;;;;;;;;;;5035176;28;20122;-72
2022/09/04 14:19:41;;;;;;;0.10;0.10;;;;;;;;;;5046170;28;20071;-71
2022/09/04 14:22:19;;;;;;;2.58;0.50;;;;;;;;;;5041305;28;20037;-70
2022/09/04 14:24:53;;;;;;;2.20;0.60;;;;;;;;;;5041072;28;20891;-70
2022/09/04 14:27:26;;;;;;;0.33;0.20;;;;;;;;;;5025752;28;20077;-70
2022/09/04 14:30:00;;;;;;;0.55;0.55;;;;;;;;;;5028748;28;20077;-70
2022/09/04 14:32:31;;;;;;;;;;;;;;;;;;5031679;28;20038;-70
2022/09/04 14:35:07;;;;;;;0.38;0.30;;;;;;;;;;5028278;28;19960;-70
2022/09/04 14:37:47;;;;;;;0.20;0.20;;;;;;;;;;5024551;28;20585;-70
2022/09/04 14:40:16;;;;;;;0.63;0.22;;;;;;;;;;5031319;28;20049;-70
2022/09/04 14:42:47;;;;;;;0.30;0.15;;;;;;;;;;5034987;28;20435;-70
2022/09/04 14:45:18;;;;;;;0.65;0.30;;;;;;;;;;5028936;28;20408;-70
2022/09/04 14:47:53;;;;;;;0.50;0.50;;;;;;;;;;5048491;28;20140;-70
2022/09/04 14:50:29;;;;;;;0.38;0.22;;;;;;;;;;5052924;28;20125;-70
2022/09/04 14:52:59;;;;;;;0.88;0.50;;;;;;;;;;5048341;28;20077;-70
2022/09/04 14:55:28;;;;;;;0.57;0.30;;;;;;;;;;5050469;28;20072;-70
2022/09/04 14:57:59;;;;;;;0.98;0.47;;;;;;;;;;5028841;28;20428;-70
2022/09/04 15:00:28;;;;;;;0.35;0.30;;;;;;;;;;5031630;28;20571;-69
2022/09/04 15:03:01;;;;;;;2.58;0.38;;;;;;;;;;5027391;28;20448;-69
2022/09/04 15:05:32;;;;;;;0.57;0.30;;;;;;;;;;5027816;28;20050;-70
2022/09/04 15:08:01;;;;;;;0.75;0.57;;;;;;;;;;5028817;28;20085;-70
2022/09/04 15:10:46;;;;;;;0.47;0.30;;;;;;;;;;5027664;28;20148;-70
2022/09/04 15:13:30;;;;;;;0.55;0.25;;;;;;;;;;5022120;28;20049;-70
2022/09/04 15:16:01;;;;;;;0.38;0.20;;;;;;;;;;5027972;28;20379;-70
2022/09/04 15:18:30;;;;;;;0.22;0.22;;;;;;;;;;5028836;28;20110;-70
2022/09/04 15:21:02;;;;;;;0.30;0.30;;;;;;;;;;5022726;28;20050;-70
2022/09/04 15:23:36;;;;;;;0.57;0.40;;;;;;;;;;5024279;28;20057;-69
2022/09/04 15:26:10;;;;;;;0.20;0.20;;;;;;;;;;5022602;28;20175;-70
2022/09/04 15:28:41;;;;;;;0.30;0.30;;;;;;;;;;5048533;28;20141;-70
2022/09/04 15:31:11;;;;;;;0.77;0.40;;;;;;;;;;5049215;28;20056;-70
2022/09/04 15:33:44;;;;;;;0.57;0.43;;;;;;;;;;5049326;28;20513;-70
2022/09/04 15:36:18;;;;;;;7.47;0.40;;;;;;;;;;5046449;28;20064;-70
2022/09/04 15:38:49;;;;;;;4.03;0.60;;;;;;;;;;5049309;28;20056;-70
2022/09/04 15:41:22;;;;;;;0.47;0.30;;;;;;;;;;5049764;28;20048;-69
2022/09/04 15:43:52;;;;;;;1.23;0.45;;;;;;;;;;5045336;28;20044;-69
2022/09/04 15:46:25;;;;;;;0.65;0.17;;;;;;;;;;5040826;28;20458;-69
2022/09/04 15:48:58;;;;;;;0.30;0.30;;;;;;;;;;5026908;28;20105;-69